createdAt,value
2018-06-30T00:01:23.233Z,5.20
2018-06-30T00:03:53.552Z,4.60
2018-06-30T00:06:25.574Z,5.53
2018-06-30T00:08:56.780Z,5.37
2018-06-30T00:11:27.284Z,5.67
2018-06-30T00:13:57.347Z,5.12
2018-06-30T00:16:27.492Z,5.20
2018-06-30T00:18:57.692Z,5.10
2018-06-30T00:21:27.907Z,5.20
2018-06-30T00:23:58.130Z,5.83
2018-06-30T00:26:28.328Z,5.17
2018-06-30T00:28:58.540Z,5.37
2018-06-30T00:31:28.558Z,5.67
2018-06-30T00:33:58.814Z,5.63
2018-06-30T00:36:28.968Z,5.20
2018-06-30T00:38:59.220Z,5.20
2018-06-30T00:41:29.436Z,5.43
2018-06-30T00:43:59.780Z,5.30
2018-06-30T00:46:29.960Z,5.60
2018-06-30T00:48:59.955Z,5.60
2018-06-30T00:51:30.179Z,5.47
2018-06-30T00:54:00.360Z,5.37
2018-06-30T00:56:30.535Z,5.77
2018-06-30T00:59:00.465Z,5.45
2018-06-30T01:01:31.068Z,6.05
2018-06-30T01:04:01.119Z,5.70
2018-06-30T01:06:31.345Z,5.92
2018-06-30T01:09:01.574Z,5.43
2018-06-30T01:11:32.491Z,5.77
2018-06-30T01:14:02.830Z,5.92
2018-06-30T01:16:32.984Z,5.55
2018-06-30T01:19:03.291Z,5.80
2018-06-30T01:21:33.413Z,6.43
2018-06-30T01:24:03.732Z,5.77
2018-06-30T01:26:33.918Z,5.10
2018-06-30T01:29:05.064Z,6.10
2018-06-30T01:31:35.175Z,6.12
2018-06-30T01:34:05.508Z,6.17
2018-06-30T01:36:35.860Z,6.40
2018-06-30T01:39:09.880Z,6.60
2018-06-30T01:41:40.444Z,6.65
2018-06-30T01:44:10.594Z,6.50
2018-06-30T01:46:40.860Z,7.10
2018-06-30T01:49:10.938Z,6.25
2018-06-30T01:51:40.958Z,12.57
2018-06-30T01:54:10.973Z,15.38
2018-06-30T01:56:41.121Z,12.33
2018-06-30T01:59:11.194Z,10.23
2018-06-30T02:01:42.019Z,9.50
2018-06-30T02:04:12.955Z,9.08
2018-06-30T02:06:43.784Z,9.97
2018-06-30T02:09:14.289Z,10.23
2018-06-30T02:11:45.203Z,11.30
2018-06-30T02:14:15.216Z,9.70
2018-06-30T02:16:45.652Z,7.63
2018-06-30T02:19:15.786Z,8.17
2018-06-30T02:21:45.966Z,9.20
2018-06-30T02:24:15.888Z,7.30
2018-06-30T02:26:46.274Z,8.47
2018-06-30T02:29:16.570Z,8.07
2018-06-30T02:31:46.798Z,6.83
2018-06-30T02:34:16.966Z,7.80
2018-06-30T02:36:47.103Z,7.50
2018-06-30T02:39:17.514Z,7.50
2018-06-30T02:41:47.630Z,7.57
2018-06-30T02:44:18.281Z,7.60
2018-06-30T02:46:48.499Z,7.33
2018-06-30T02:49:19.043Z,7.90
2018-06-30T02:51:49.359Z,7.47
2018-06-30T02:54:19.436Z,7.60
2018-06-30T02:56:49.824Z,7.80
2018-06-30T02:59:19.924Z,8.13
2018-06-30T03:01:50.235Z,8.10
2018-06-30T03:04:20.266Z,7.65
2018-06-30T03:06:50.508Z,8.55
2018-06-30T03:09:20.821Z,8.00
2018-06-30T03:11:50.909Z,8.70
2018-06-30T03:14:21.124Z,8.38
2018-06-30T03:16:51.270Z,9.13
2018-06-30T03:19:21.441Z,8.47
2018-06-30T03:21:51.679Z,9.20
2018-06-30T03:24:22.046Z,8.13
2018-06-30T03:26:52.074Z,8.80
2018-06-30T03:29:22.165Z,8.33
2018-06-30T03:31:52.444Z,8.37
2018-06-30T03:34:22.808Z,9.33
2018-06-30T03:36:52.976Z,8.63
2018-06-30T03:39:23.499Z,8.97
2018-06-30T03:41:53.419Z,8.30
2018-06-30T03:44:23.480Z,8.63
2018-06-30T03:46:53.464Z,9.23
2018-06-30T03:49:23.727Z,8.50
2018-06-30T03:51:54.199Z,8.93
2018-06-30T03:54:24.230Z,9.33
2018-06-30T03:56:54.464Z,9.17
2018-06-30T03:59:24.552Z,10.07
2018-06-30T04:01:54.806Z,9.10
2018-06-30T04:04:25.108Z,9.93
2018-06-30T04:06:55.322Z,8.60
2018-06-30T04:09:25.424Z,9.57
2018-06-30T04:11:55.669Z,10.93
2018-06-30T04:14:25.910Z,11.50
2018-06-30T04:16:56.037Z,11.30
2018-06-30T04:19:26.161Z,10.40
2018-06-30T04:21:56.317Z,10.07
2018-06-30T04:24:26.685Z,10.13
2018-06-30T04:26:56.829Z,10.78
2018-06-30T04:29:27.030Z,10.63
2018-06-30T04:31:57.064Z,12.90
2018-06-30T04:34:27.549Z,10.30
2018-06-30T04:36:57.582Z,9.30
2018-06-30T04:39:27.652Z,11.20
2018-06-30T04:41:57.749Z,9.83
2018-06-30T04:44:28.115Z,10.90
2018-06-30T04:46:58.361Z,10.77
2018-06-30T04:49:28.431Z,10.70
2018-06-30T04:51:58.459Z,10.50
2018-06-30T04:54:29.160Z,11.10
2018-06-30T04:56:59.615Z,10.73
2018-06-30T04:59:29.797Z,11.10
2018-06-30T05:02:00.371Z,10.90
2018-06-30T05:04:31.574Z,12.67
2018-06-30T05:07:02.720Z,10.87
2018-06-30T05:09:33.965Z,10.63
2018-06-30T05:12:05.025Z,10.45
2018-06-30T05:20:33.284Z,11.93
2018-06-30T05:23:03.551Z,11.03
2018-06-30T05:25:33.729Z,9.80
2018-06-30T05:28:03.915Z,10.23
2018-06-30T05:30:33.944Z,9.83
2018-06-30T05:33:04.354Z,9.97
2018-06-30T05:35:34.445Z,9.67
2018-06-30T05:38:04.705Z,10.37
2018-06-30T05:40:34.886Z,10.10
2018-06-30T05:43:05.024Z,5.40
2018-06-30T05:45:35.234Z,5.67
2018-06-30T05:48:05.596Z,6.27
2018-06-30T05:50:35.540Z,8.83
2018-06-30T05:53:06.720Z,6.93
2018-06-30T05:55:37.070Z,6.40
2018-06-30T05:58:07.796Z,6.22
2018-06-30T06:00:37.974Z,5.72
2018-06-30T06:03:08.415Z,5.55
2018-06-30T06:05:38.616Z,6.57
2018-06-30T06:08:08.826Z,7.30
2018-06-30T06:10:39.273Z,6.70
2018-06-30T06:13:09.151Z,8.60
2018-06-30T06:15:39.281Z,6.40
2018-06-30T06:18:09.851Z,6.45
2018-06-30T06:20:40.230Z,6.47
2018-06-30T06:23:10.410Z,5.67
2018-06-30T06:25:40.509Z,5.57
2018-06-30T06:28:10.592Z,5.57
2018-06-30T06:30:40.828Z,5.63
2018-06-30T06:33:11.351Z,5.33
2018-06-30T06:35:42.084Z,5.10
2018-06-30T06:38:13.233Z,4.92
2018-06-30T06:40:44.356Z,4.50
2018-06-30T06:43:15.145Z,4.65
2018-06-30T06:45:46.844Z,4.40
2018-06-30T06:48:17.475Z,4.15
2018-06-30T06:50:48.591Z,4.08
2018-06-30T06:53:19.673Z,3.67
2018-06-30T06:55:50.606Z,3.80
2018-06-30T06:58:21.451Z,4.30
2018-06-30T07:00:52.135Z,4.27
2018-06-30T07:03:22.292Z,4.50
2018-06-30T07:05:52.408Z,4.93
2018-06-30T07:08:22.947Z,5.03
2018-06-30T07:10:53.650Z,4.50
2018-06-30T07:13:23.860Z,7.80
2018-06-30T07:15:53.986Z,14.67
2018-06-30T07:18:24.420Z,6.40
2018-06-30T07:20:54.461Z,8.37
2018-06-30T07:23:24.576Z,4.30
2018-06-30T07:25:54.575Z,3.33
2018-06-30T07:28:24.470Z,3.43
2018-06-30T07:30:54.780Z,3.50
2018-06-30T07:33:25.648Z,3.37
2018-06-30T07:35:56.089Z,5.27
2018-06-30T07:38:26.627Z,4.62
2018-06-30T07:40:57.306Z,3.40
2018-06-30T07:43:27.508Z,3.50
2018-06-30T07:45:57.577Z,3.37
2018-06-30T07:48:27.651Z,3.58
2018-06-30T07:50:57.770Z,3.10
2018-06-30T07:53:28.006Z,2.90
2018-06-30T07:55:58.111Z,3.53
2018-06-30T07:58:28.238Z,3.12
2018-06-30T08:00:58.417Z,3.13
2018-06-30T08:03:28.562Z,3.03
2018-06-30T08:05:58.631Z,3.42
2018-06-30T08:08:29.168Z,3.00
2018-06-30T08:10:59.336Z,3.47
2018-06-30T08:13:29.571Z,3.60
2018-06-30T08:15:59.655Z,9.80
2018-06-30T08:18:29.778Z,5.10
2018-06-30T08:20:59.882Z,4.00
2018-06-30T08:23:30.160Z,3.67
2018-06-30T08:26:01.590Z,3.37
2018-06-30T08:28:32.358Z,4.07
2018-06-30T08:31:03.459Z,4.03
2018-06-30T08:33:34.062Z,3.30
2018-06-30T08:36:05.425Z,3.40
2018-06-30T08:38:36.215Z,5.35
2018-06-30T08:41:07.370Z,4.12
2018-06-30T08:43:38.231Z,3.62
2018-06-30T08:46:09.646Z,3.60
2018-06-30T08:48:40.230Z,3.25
2018-06-30T08:51:11.062Z,3.50
2018-06-30T08:53:41.303Z,3.20
2018-06-30T08:56:11.622Z,3.90
2018-06-30T08:58:42.007Z,3.40
2018-06-30T09:01:12.387Z,3.20
2018-06-30T09:03:42.556Z,3.93
2018-06-30T09:06:12.940Z,6.73
2018-06-30T09:08:43.591Z,3.60
2018-06-30T09:11:13.733Z,3.90
2018-06-30T09:13:43.920Z,3.80
2018-06-30T09:16:14.244Z,4.30
2018-06-30T09:18:44.451Z,5.60
2018-06-30T09:21:14.548Z,6.60
2018-06-30T09:23:44.718Z,9.10
2018-06-30T09:26:14.943Z,7.80
2018-06-30T09:28:45.147Z,8.03
2018-06-30T09:31:15.303Z,5.07
2018-06-30T09:33:45.466Z,4.80
2018-06-30T09:36:15.739Z,4.30
2018-06-30T09:38:45.921Z,3.52
2018-06-30T09:41:15.979Z,4.27
2018-06-30T09:43:46.206Z,4.00
2018-06-30T09:46:16.562Z,3.40
2018-06-30T09:48:46.518Z,2.83
2018-06-30T09:51:16.881Z,3.10
2018-06-30T09:53:47.025Z,3.72
2018-06-30T09:56:17.425Z,3.80
2018-06-30T09:58:47.533Z,3.07
2018-06-30T10:01:17.740Z,3.10
2018-06-30T10:03:47.936Z,3.25
2018-06-30T10:06:17.997Z,3.17
2018-06-30T10:08:48.292Z,4.00
2018-06-30T10:11:18.554Z,5.70
2018-06-30T10:13:48.767Z,5.10
2018-06-30T10:16:18.851Z,4.80
2018-06-30T10:18:49.242Z,4.83
2018-06-30T10:21:19.800Z,3.90
2018-06-30T10:23:50.240Z,3.40
2018-06-30T10:26:20.317Z,3.43
2018-06-30T10:28:50.827Z,3.90
2018-06-30T10:31:21.138Z,5.83
2018-06-30T10:33:51.397Z,2.57
2018-06-30T10:36:21.557Z,2.67
2018-06-30T10:38:51.804Z,2.00
2018-06-30T10:41:21.894Z,2.00
2018-06-30T10:43:52.121Z,2.10
2018-06-30T10:46:22.188Z,2.22
2018-06-30T10:48:52.491Z,2.30
2018-06-30T10:51:22.810Z,1.80
2018-06-30T10:53:53.156Z,3.30
2018-06-30T10:56:23.780Z,2.37
2018-06-30T10:58:54.038Z,2.50
2018-06-30T11:01:24.998Z,2.80
2018-06-30T11:03:55.608Z,2.22
2018-06-30T11:06:26.326Z,1.90
2018-06-30T11:08:57.692Z,2.90
2018-06-30T11:11:28.368Z,8.37
2018-06-30T11:13:59.501Z,3.97
2018-06-30T11:16:30.411Z,3.10
2018-06-30T11:19:01.472Z,2.30
2018-06-30T11:21:32.472Z,1.92
2018-06-30T11:24:03.814Z,2.00
2018-06-30T11:26:34.263Z,1.40
2018-06-30T11:29:05.930Z,1.73
2018-06-30T11:31:36.386Z,1.63
2018-06-30T11:34:07.822Z,1.60
2018-06-30T11:36:38.593Z,1.63
2018-06-30T11:39:13.051Z,1.07
2018-06-30T11:41:43.886Z,1.27
2018-06-30T11:44:14.244Z,1.57
2018-06-30T11:46:44.469Z,1.53
2018-06-30T11:49:14.709Z,1.37
2018-06-30T11:51:44.865Z,1.60
2018-06-30T11:54:16.126Z,1.30
2018-06-30T11:56:47.108Z,1.37
2018-06-30T11:59:18.150Z,1.12
2018-06-30T12:01:48.403Z,1.07
2018-06-30T12:04:18.661Z,1.23
2018-06-30T12:06:48.915Z,1.40
2018-06-30T12:09:19.137Z,1.10
2018-06-30T12:11:49.041Z,1.40
2018-06-30T12:14:19.427Z,1.23
2018-06-30T12:16:49.731Z,2.70
2018-06-30T12:19:19.867Z,2.93
2018-06-30T12:21:50.052Z,1.40
2018-06-30T12:24:20.055Z,1.47
2018-06-30T12:26:50.521Z,1.10
2018-06-30T12:29:20.940Z,1.10
2018-06-30T12:31:51.103Z,1.30
2018-06-30T12:34:21.181Z,2.27
2018-06-30T12:36:51.336Z,1.70
2018-06-30T12:39:21.494Z,1.50
2018-06-30T12:41:51.709Z,1.42
2018-06-30T12:44:21.888Z,1.30
2018-06-30T12:46:52.203Z,1.30
2018-06-30T12:49:22.469Z,1.37
2018-06-30T12:51:52.897Z,1.30
2018-06-30T12:54:24.653Z,1.17
2018-06-30T12:56:55.443Z,1.47
2018-06-30T12:59:25.781Z,1.42
2018-06-30T13:01:56.206Z,1.20
2018-06-30T13:04:26.529Z,1.30
2018-06-30T13:06:56.833Z,1.20
2018-06-30T13:09:27.346Z,1.40
2018-06-30T13:11:57.977Z,1.32
2018-06-30T13:14:28.197Z,1.80
2018-06-30T13:16:58.526Z,2.33
2018-06-30T13:19:28.667Z,2.00
2018-06-30T13:21:58.901Z,1.03
2018-06-30T13:24:28.864Z,1.40
2018-06-30T13:26:58.997Z,1.33
2018-06-30T13:29:29.333Z,1.23
2018-06-30T13:31:59.584Z,1.20
2018-06-30T13:34:29.762Z,1.20
2018-06-30T13:36:59.901Z,1.30
2018-06-30T13:39:30.129Z,1.33
2018-06-30T13:42:00.451Z,1.40
2018-06-30T13:44:30.799Z,1.40
2018-06-30T13:47:00.949Z,1.27
2018-06-30T13:49:31.253Z,2.63
2018-06-30T13:52:01.446Z,2.00
2018-06-30T13:54:32.014Z,1.13
2018-06-30T13:57:02.412Z,1.20
2018-06-30T13:59:32.703Z,2.00
2018-06-30T14:02:02.808Z,1.47
2018-06-30T14:04:32.917Z,1.50
2018-06-30T14:07:03.194Z,12.28
2018-06-30T14:09:33.497Z,1.30
2018-06-30T14:12:03.534Z,1.62
2018-06-30T14:14:33.746Z,1.37
2018-06-30T14:17:03.927Z,2.35
2018-06-30T14:19:34.254Z,13.00
2018-06-30T14:22:04.294Z,5.97
2018-06-30T14:24:34.533Z,2.92
2018-06-30T14:27:04.861Z,1.50
2018-06-30T14:29:35.149Z,1.10
2018-06-30T14:32:05.196Z,1.60
2018-06-30T14:34:35.302Z,2.40
2018-06-30T14:37:05.468Z,3.37
2018-06-30T14:39:35.700Z,1.90
2018-06-30T14:42:05.845Z,1.10
2018-06-30T14:44:35.947Z,1.37
2018-06-30T14:47:06.151Z,1.40
2018-06-30T14:50:32.283Z,0.93
2018-06-30T14:53:02.315Z,0.90
2018-06-30T14:55:32.647Z,1.33
2018-06-30T14:58:02.807Z,1.00
2018-06-30T15:00:33.097Z,1.20
2018-06-30T15:03:03.500Z,0.97
2018-06-30T15:05:34.129Z,1.00
2018-06-30T15:08:04.476Z,1.17
2018-06-30T15:10:34.532Z,0.77
2018-06-30T15:13:04.766Z,1.02
2018-06-30T15:15:35.017Z,1.00
2018-06-30T15:18:05.245Z,0.97
2018-06-30T15:20:35.559Z,0.93
2018-06-30T15:23:05.802Z,0.93
2018-06-30T15:25:36.005Z,0.85
2018-06-30T15:28:06.571Z,0.90
2018-06-30T15:30:37.235Z,1.40
2018-06-30T15:33:07.267Z,0.90
2018-06-30T15:35:37.592Z,1.12
2018-06-30T15:38:07.758Z,2.30
2018-06-30T15:40:38.027Z,1.67
2018-06-30T15:43:08.084Z,4.87
2018-06-30T15:45:38.343Z,1.50
2018-06-30T15:48:08.569Z,1.93
2018-06-30T15:50:38.753Z,1.40
2018-06-30T15:53:09.027Z,1.23
2018-06-30T15:55:39.203Z,1.25
2018-06-30T15:58:09.554Z,1.57
2018-06-30T16:00:39.838Z,1.10
2018-06-30T16:03:10.156Z,8.33
2018-06-30T16:05:40.711Z,1.90
2018-06-30T16:08:10.963Z,1.00
2018-06-30T16:10:41.394Z,1.30
2018-06-30T16:13:11.963Z,1.50
2018-06-30T16:15:42.816Z,1.10
2018-06-30T16:18:14.065Z,1.40
2018-06-30T16:20:45.085Z,21.17
2018-06-30T16:23:16.335Z,10.47
2018-06-30T16:25:47.289Z,18.05
2018-06-30T16:30:33.908Z,11.53
2018-06-30T16:33:04.132Z,12.43
2018-06-30T16:35:34.328Z,5.12
2018-06-30T16:38:04.625Z,1.50
2018-06-30T16:40:34.858Z,1.23
2018-06-30T16:43:05.029Z,1.10
2018-06-30T16:45:35.105Z,1.00
2018-06-30T16:48:05.364Z,1.00
2018-06-30T16:50:35.544Z,1.20
2018-06-30T16:53:05.787Z,1.50
2018-06-30T16:55:35.907Z,1.80
2018-06-30T16:58:06.121Z,1.10
2018-06-30T17:00:37.530Z,1.40
2018-06-30T17:03:08.768Z,1.26
2018-06-30T17:05:38.646Z,1.22
2018-06-30T17:08:08.902Z,1.40
2018-06-30T17:10:39.167Z,1.00
2018-06-30T17:13:09.157Z,1.37
2018-06-30T17:15:39.290Z,1.50
2018-06-30T17:18:09.712Z,10.15
2018-06-30T17:20:41.069Z,12.33
2018-06-30T17:23:11.474Z,3.77
2018-06-30T17:25:42.215Z,1.77
2018-06-30T17:28:13.335Z,1.17
2018-06-30T17:30:44.090Z,1.04
2018-06-30T17:33:14.772Z,0.90
2018-06-30T17:35:46.047Z,1.20
2018-06-30T17:38:17.384Z,1.80
2018-06-30T17:40:48.213Z,1.70
2018-06-30T17:43:19.198Z,1.55
2018-06-30T17:45:50.241Z,1.68
2018-06-30T17:48:20.755Z,2.72
2018-06-30T17:50:50.902Z,1.82
2018-06-30T17:53:21.162Z,1.20
2018-06-30T17:55:51.428Z,2.40
2018-06-30T17:58:21.549Z,4.62
2018-06-30T18:00:51.869Z,1.90
2018-06-30T18:03:22.009Z,1.12
2018-06-30T18:05:52.254Z,1.20
2018-06-30T18:08:22.385Z,1.80
2018-06-30T18:10:52.949Z,2.70
2018-06-30T18:13:23.312Z,2.27
2018-06-30T18:15:53.787Z,1.90
2018-06-30T18:18:24.164Z,1.60
2018-06-30T18:20:54.223Z,2.47
2018-06-30T18:23:24.759Z,1.27
2018-06-30T18:25:55.390Z,1.12
2018-06-30T18:28:25.697Z,1.00
2018-06-30T18:30:56.078Z,1.20
2018-06-30T18:33:26.239Z,1.22
2018-06-30T18:35:56.677Z,1.40
2018-06-30T18:38:26.818Z,1.37
2018-06-30T18:40:57.100Z,1.17
2018-06-30T18:43:27.345Z,1.00
2018-06-30T18:45:57.768Z,1.10
2018-06-30T18:48:28.206Z,1.53
2018-06-30T18:50:58.652Z,1.10
2018-06-30T18:53:29.009Z,1.30
2018-06-30T18:55:59.290Z,1.75
2018-06-30T18:58:29.307Z,2.67
2018-06-30T19:00:59.595Z,2.37
2018-06-30T19:03:29.829Z,2.60
2018-06-30T19:06:00.319Z,2.20
2018-06-30T19:08:30.893Z,2.33
2018-06-30T19:11:01.340Z,2.40
2018-06-30T19:13:31.449Z,2.73
2018-06-30T19:16:01.833Z,1.93
2018-06-30T19:18:32.068Z,2.43
2018-06-30T19:21:02.044Z,2.00
2018-06-30T19:23:32.315Z,2.30
2018-06-30T19:26:03.136Z,1.93
2018-06-30T19:28:34.053Z,1.80
2018-06-30T19:31:06.099Z,2.73
2018-06-30T19:33:36.019Z,2.33
2018-06-30T19:36:06.984Z,1.80
2018-06-30T19:38:38.083Z,2.00
2018-06-30T19:41:09.385Z,2.27
2018-06-30T19:43:40.258Z,2.50
2018-06-30T19:46:10.525Z,2.87
2018-06-30T19:48:40.587Z,2.73
2018-06-30T19:51:11.134Z,2.93
2018-06-30T19:53:41.318Z,4.37
2018-06-30T19:56:11.564Z,3.97
2018-06-30T19:58:41.803Z,3.67
2018-06-30T20:01:12.098Z,3.67
2018-06-30T20:03:42.469Z,3.60
2018-06-30T20:06:12.690Z,3.33
2018-06-30T20:08:43.339Z,3.13
2018-06-30T20:11:13.768Z,3.23
2018-06-30T20:13:44.246Z,2.87
2018-06-30T20:16:14.045Z,3.00
2018-06-30T20:18:44.444Z,3.10
2018-06-30T20:21:14.937Z,3.05
2018-06-30T20:23:45.119Z,3.15
2018-06-30T20:26:15.695Z,2.20
2018-06-30T20:28:46.050Z,2.20
2018-06-30T20:31:16.332Z,2.00
2018-06-30T20:33:46.637Z,1.77
2018-06-30T20:36:16.881Z,1.80
2018-06-30T20:38:47.181Z,2.23
2018-06-30T20:41:18.045Z,2.15
2018-06-30T20:43:48.276Z,1.70
2018-06-30T20:46:18.790Z,1.47
2018-06-30T20:48:49.421Z,1.30
2018-06-30T20:51:19.815Z,1.20
2018-06-30T20:53:49.919Z,1.40
2018-06-30T20:56:20.001Z,1.30
2018-06-30T20:58:50.376Z,1.50
2018-06-30T21:01:20.793Z,1.10
2018-06-30T21:03:50.518Z,1.90
2018-06-30T21:06:20.816Z,3.30
2018-06-30T21:08:51.009Z,6.77
2018-06-30T21:11:22.068Z,5.00
2018-06-30T21:13:52.332Z,6.60
2018-06-30T21:16:23.696Z,6.27
2018-06-30T21:18:53.960Z,7.50
2018-06-30T21:21:24.274Z,7.70
2018-06-30T21:23:54.705Z,8.13
2018-06-30T21:26:24.789Z,6.63
2018-06-30T21:28:55.582Z,6.80
2018-06-30T21:31:25.724Z,5.90
2018-06-30T21:33:55.876Z,5.50
2018-06-30T21:36:26.969Z,4.83
2018-06-30T21:38:58.187Z,4.47
2018-06-30T21:41:28.930Z,3.45
2018-06-30T21:43:59.631Z,2.40
2018-06-30T21:46:29.888Z,3.03
2018-06-30T21:49:00.026Z,2.93
2018-06-30T21:51:30.496Z,2.40
2018-06-30T21:54:00.629Z,2.67
2018-06-30T21:56:30.733Z,1.93
2018-06-30T21:59:00.791Z,2.90
2018-06-30T22:01:31.041Z,2.73
2018-06-30T22:04:02.126Z,4.25
2018-06-30T22:06:32.984Z,4.37
2018-06-30T22:09:03.293Z,7.43
2018-06-30T22:11:33.766Z,5.00
2018-06-30T22:14:04.025Z,3.53
2018-06-30T22:16:34.062Z,2.90
2018-06-30T22:19:04.341Z,3.63
2018-06-30T22:21:34.356Z,3.30
2018-06-30T22:24:04.690Z,2.70
2018-06-30T22:26:34.858Z,2.50
2018-06-30T22:29:05.027Z,2.00
2018-06-30T22:31:35.306Z,2.10
2018-06-30T22:34:05.549Z,1.73
2018-06-30T22:36:35.691Z,1.73
2018-06-30T22:39:08.823Z,1.67
2018-06-30T22:41:39.028Z,1.80
2018-06-30T22:44:09.164Z,1.63
2018-06-30T22:46:39.428Z,1.60
2018-06-30T22:49:09.724Z,1.63
2018-06-30T22:51:39.815Z,1.70
2018-06-30T22:54:09.936Z,1.37
2018-06-30T22:56:40.219Z,1.63
2018-06-30T22:59:10.393Z,1.45
2018-06-30T23:01:40.704Z,1.72
2018-06-30T23:04:10.861Z,1.50
2018-06-30T23:06:40.920Z,1.47
2018-06-30T23:09:11.759Z,1.47
2018-06-30T23:11:41.861Z,1.17
2018-06-30T23:14:12.230Z,1.30
2018-06-30T23:16:42.225Z,1.47
2018-06-30T23:19:12.164Z,1.00
2018-06-30T23:21:42.569Z,1.43
2018-06-30T23:24:12.787Z,1.23
2018-06-30T23:26:42.912Z,1.30
2018-06-30T23:29:13.030Z,1.22
2018-06-30T23:31:43.182Z,1.40
2018-06-30T23:34:13.149Z,1.23
2018-06-30T23:36:43.211Z,1.23
2018-06-30T23:39:13.421Z,1.30
2018-06-30T23:41:43.914Z,1.12
2018-06-30T23:44:14.684Z,1.37
2018-06-30T23:46:45.673Z,1.25
2018-06-30T23:49:16.446Z,1.53
2018-06-30T23:51:46.527Z,1.20
2018-06-30T23:54:16.619Z,1.17
2018-06-30T23:56:46.684Z,1.40
2018-06-30T23:59:16.897Z,1.57
